sensor_id;sensor_type;location;lat;lon;timestamp;temperature;humidity
41944;DHT22;27636;52.610;13.244;2023-07-31T00:00:39;14.60;99.90
41944;DHT22;27636;52.610;13.244;2023-07-31T00:05:44;14.60;99.90
41944;DHT22;27636;52.610;13.244;2023-07-31T00:10:50;14.30;99.90
41944;DHT22;27636;52.610;13.244;2023-07-31T00:15:54;14.10;99.90
41944;DHT22;27636;52.610;13.244;2023-07-31T00:20:59;14.10;99.90
41944;DHT22;27636;52.610;13.244;2023-07-31T00:26:03;14.10;99.90
41944;DHT22;27636;52.610;13.244;2023-07-31T00:31:06;14.20;99.90
41944;DHT22;27636;52.610;13.244;2023-07-31T00:36:11;14.30;99.90
41944;DHT22;27636;52.610;13.244;2023-07-31T00:41:15;14.30;99.90
41944;DHT22;27636;52.610;13.244;2023-07-31T00:46:20;14.20;99.90
41944;DHT22;27636;52.610;13.244;2023-07-31T00:51:25;14.30;99.90
41944;DHT22;27636;52.610;13.244;2023-07-31T00:56:28;14.30;99.90
41944;DHT22;27636;52.610;13.244;2023-07-31T01:01:33;14.50;99.90
41944;DHT22;27636;52.610;13.244;2023-07-31T01:06:44;14.50;99.90
41944;DHT22;27636;52.610;13.244;2023-07-31T01:11:53;14.60;99.90
41944;DHT22;27636;52.610;13.244;2023-07-31T01:16:59;14.80;99.90
41944;DHT22;27636;52.610;13.244;2023-07-31T01:22:16;14.90;99.90
41944;DHT22;27636;52.610;13.244;2023-07-31T01:27:30;15.00;99.90
41944;DHT22;27636;52.610;13.244;2023-07-31T01:32:34;15.00;99.90
41944;DHT22;27636;52.610;13.244;2023-07-31T01:37:38;15.00;99.90
41944;DHT22;27636;52.610;13.244;2023-07-31T01:42:43;15.00;99.90
41944;DHT22;27636;52.610;13.244;2023-07-31T01:47:46;15.10;99.90
41944;DHT22;27636;52.610;13.244;2023-07-31T01:52:50;15.10;99.90
41944;DHT22;27636;52.610;13.244;2023-07-31T01:57:55;15.10;99.90
41944;DHT22;27636;52.610;13.244;2023-07-31T02:02:59;15.10;99.90
41944;DHT22;27636;52.610;13.244;2023-07-31T02:08:03;15.10;99.90
41944;DHT22;27636;52.610;13.244;2023-07-31T02:13:10;15.10;99.90
41944;DHT22;27636;52.610;13.244;2023-07-31T02:18:14;15.10;99.90
41944;DHT22;27636;52.610;13.244;2023-07-31T02:23:18;15.10;99.90
41944;DHT22;27636;52.610;13.244;2023-07-31T02:28:23;15.20;99.90
41944;DHT22;27636;52.610;13.244;2023-07-31T02:33:27;15.00;99.90
41944;DHT22;27636;52.610;13.244;2023-07-31T02:38:30;15.10;99.90
41944;DHT22;27636;52.610;13.244;2023-07-31T02:43:35;15.20;99.90
41944;DHT22;27636;52.610;13.244;2023-07-31T02:48:39;15.10;99.90
41944;DHT22;27636;52.610;13.244;2023-07-31T02:53:42;15.20;99.90
41944;DHT22;27636;52.610;13.244;2023-07-31T02:58:47;15.00;99.90
41944;DHT22;27636;52.610;13.244;2023-07-31T03:03:51;15.00;99.90
41944;DHT22;27636;52.610;13.244;2023-07-31T03:08:55;15.00;99.90
41944;DHT22;27636;52.610;13.244;2023-07-31T03:14:00;15.10;99.90
41944;DHT22;27636;52.610;13.244;2023-07-31T03:19:03;15.20;99.90
41944;DHT22;27636;52.610;13.244;2023-07-31T03:24:07;15.20;99.90
41944;DHT22;27636;52.610;13.244;2023-07-31T03:29:12;15.00;99.90
41944;DHT22;27636;52.610;13.244;2023-07-31T03:34:15;15.00;99.90
41944;DHT22;27636;52.610;13.244;2023-07-31T03:39:18;15.00;99.90
41944;DHT22;27636;52.610;13.244;2023-07-31T03:44:23;15.00;99.90
41944;DHT22;27636;52.610;13.244;2023-07-31T03:49:27;15.00;99.90
41944;DHT22;27636;52.610;13.244;2023-07-31T03:54:30;15.00;99.90
41944;DHT22;27636;52.610;13.244;2023-07-31T03:59:35;15.10;99.90
41944;DHT22;27636;52.610;13.244;2023-07-31T04:04:39;15.20;99.90
41944;DHT22;27636;52.610;13.244;2023-07-31T04:09:42;15.20;99.90
41944;DHT22;27636;52.610;13.244;2023-07-31T04:14:47;15.20;99.90
41944;DHT22;27636;52.610;13.244;2023-07-31T04:19:51;15.20;99.90
41944;DHT22;27636;52.610;13.244;2023-07-31T04:24:54;15.30;99.90
41944;DHT22;27636;52.610;13.244;2023-07-31T04:30:00;15.40;99.90
41944;DHT22;27636;52.610;13.244;2023-07-31T04:35:04;15.50;99.90
41944;DHT22;27636;52.610;13.244;2023-07-31T04:40:09;15.60;99.90
41944;DHT22;27636;52.610;13.244;2023-07-31T04:45:14;15.50;99.90
41944;DHT22;27636;52.610;13.244;2023-07-31T04:50:20;15.60;99.90
41944;DHT22;27636;52.610;13.244;2023-07-31T04:55:24;15.60;99.90
41944;DHT22;27636;52.610;13.244;2023-07-31T05:00:29;15.60;99.90
41944;DHT22;27636;52.610;13.244;2023-07-31T05:05:33;15.70;99.90
41944;DHT22;27636;52.610;13.244;2023-07-31T05:10:36;15.70;99.90
41944;DHT22;27636;52.610;13.244;2023-07-31T05:15:42;15.60;99.90
41944;DHT22;27636;52.610;13.244;2023-07-31T05:20:45;15.70;99.90
41944;DHT22;27636;52.610;13.244;2023-07-31T05:25:49;16.00;99.90
41944;DHT22;27636;52.610;13.244;2023-07-31T05:30:59;16.10;99.90
41944;DHT22;27636;52.610;13.244;2023-07-31T05:36:03;16.20;99.90
41944;DHT22;27636;52.610;13.244;2023-07-31T05:41:06;16.50;99.90
41944;DHT22;27636;52.610;13.244;2023-07-31T05:46:11;16.40;99.90
41944;DHT22;27636;52.610;13.244;2023-07-31T05:51:15;16.30;99.90
41944;DHT22;27636;52.610;13.244;2023-07-31T05:56:19;16.50;99.90
41944;DHT22;27636;52.610;13.244;2023-07-31T06:01:24;16.40;99.90
41944;DHT22;27636;52.610;13.244;2023-07-31T06:06:27;16.50;99.90
41944;DHT22;27636;52.610;13.244;2023-07-31T06:11:31;16.50;99.90
41944;DHT22;27636;52.610;13.244;2023-07-31T06:16:36;16.40;99.90
41944;DHT22;27636;52.610;13.244;2023-07-31T06:21:40;16.50;99.90
41944;DHT22;27636;52.610;13.244;2023-07-31T06:26:46;16.50;99.90
41944;DHT22;27636;52.610;13.244;2023-07-31T06:31:51;16.50;99.90
41944;DHT22;27636;52.610;13.244;2023-07-31T06:36:55;16.60;99.90
41944;DHT22;27636;52.610;13.244;2023-07-31T06:41:58;16.80;99.90
41944;DHT22;27636;52.610;13.244;2023-07-31T06:47:04;17.00;99.90
41944;DHT22;27636;52.610;13.244;2023-07-31T06:52:08;16.90;99.90
41944;DHT22;27636;52.610;13.244;2023-07-31T06:57:12;16.80;99.90
41944;DHT22;27636;52.610;13.244;2023-07-31T07:02:17;16.90;99.90
41944;DHT22;27636;52.610;13.244;2023-07-31T07:07:21;17.30;99.90
41944;DHT22;27636;52.610;13.244;2023-07-31T07:12:24;17.20;99.90
41944;DHT22;27636;52.610;13.244;2023-07-31T07:17:30;17.10;99.90
41944;DHT22;27636;52.610;13.244;2023-07-31T07:22:36;17.20;99.90
41944;DHT22;27636;52.610;13.244;2023-07-31T07:27:40;17.50;99.90
41944;DHT22;27636;52.610;13.244;2023-07-31T07:32:45;18.30;99.90
41944;DHT22;27636;52.610;13.244;2023-07-31T07:37:48;18.40;99.90
41944;DHT22;27636;52.610;13.244;2023-07-31T07:42:55;18.30;99.90
41944;DHT22;27636;52.610;13.244;2023-07-31T07:48:00;18.20;99.90
41944;DHT22;27636;52.610;13.244;2023-07-31T07:53:04;17.60;99.90
41944;DHT22;27636;52.610;13.244;2023-07-31T07:58:08;17.30;99.90
41944;DHT22;27636;52.610;13.244;2023-07-31T08:03:12;17.20;99.90
41944;DHT22;27636;52.610;13.244;2023-07-31T08:08:16;17.60;99.90
41944;DHT22;27636;52.610;13.244;2023-07-31T08:13:20;17.90;99.90
41944;DHT22;27636;52.610;13.244;2023-07-31T08:18:25;17.70;99.90
41944;DHT22;27636;52.610;13.244;2023-07-31T08:23:29;17.80;99.90
41944;DHT22;27636;52.610;13.244;2023-07-31T08:28:32;17.60;99.90
41944;DHT22;27636;52.610;13.244;2023-07-31T08:33:37;17.70;99.90
41944;DHT22;27636;52.610;13.244;2023-07-31T08:38:41;17.70;99.90
41944;DHT22;27636;52.610;13.244;2023-07-31T08:43:45;17.90;99.90
41944;DHT22;27636;52.610;13.244;2023-07-31T08:48:51;17.90;99.90
41944;DHT22;27636;52.610;13.244;2023-07-31T08:53:56;17.60;99.90
41944;DHT22;27636;52.610;13.244;2023-07-31T08:59:02;18.00;99.90
41944;DHT22;27636;52.610;13.244;2023-07-31T09:04:09;18.60;99.90
41944;DHT22;27636;52.610;13.244;2023-07-31T09:09:14;18.80;99.90
41944;DHT22;27636;52.610;13.244;2023-07-31T09:14:18;19.30;99.90
41944;DHT22;27636;52.610;13.244;2023-07-31T09:19:28;19.00;99.90
41944;DHT22;27636;52.610;13.244;2023-07-31T09:24:34;18.80;99.90
41944;DHT22;27636;52.610;13.244;2023-07-31T09:29:38;18.50;99.90
41944;DHT22;27636;52.610;13.244;2023-07-31T09:34:43;18.10;99.90
41944;DHT22;27636;52.610;13.244;2023-07-31T09:39:47;17.90;99.90
41944;DHT22;27636;52.610;13.244;2023-07-31T09:44:51;17.80;99.90
41944;DHT22;27636;52.610;13.244;2023-07-31T09:49:56;17.60;99.90
41944;DHT22;27636;52.610;13.244;2023-07-31T09:55:00;17.80;99.90
41944;DHT22;27636;52.610;13.244;2023-07-31T10:00:04;18.10;99.90
41944;DHT22;27636;52.610;13.244;2023-07-31T10:05:15;18.80;99.90
41944;DHT22;27636;52.610;13.244;2023-07-31T10:10:20;19.30;99.90
41944;DHT22;27636;52.610;13.244;2023-07-31T10:15:24;19.10;99.90
41944;DHT22;27636;52.610;13.244;2023-07-31T10:20:30;18.70;99.90
41944;DHT22;27636;52.610;13.244;2023-07-31T10:25:34;18.80;99.90
41944;DHT22;27636;52.610;13.244;2023-07-31T10:30:39;18.60;99.90
41944;DHT22;27636;52.610;13.244;2023-07-31T10:35:47;18.60;99.90
41944;DHT22;27636;52.610;13.244;2023-07-31T10:40:50;18.30;99.90
41944;DHT22;27636;52.610;13.244;2023-07-31T10:45:54;18.20;99.90
41944;DHT22;27636;52.610;13.244;2023-07-31T10:50:58;18.50;99.90
41944;DHT22;27636;52.610;13.244;2023-07-31T10:56:03;19.60;99.90
41944;DHT22;27636;52.610;13.244;2023-07-31T11:01:07;21.50;99.90
41944;DHT22;27636;52.610;13.244;2023-07-31T11:06:13;23.40;99.90
41944;DHT22;27636;52.610;13.244;2023-07-31T11:11:21;22.80;99.90
41944;DHT22;27636;52.610;13.244;2023-07-31T11:16:25;22.10;99.90
41944;DHT22;27636;52.610;13.244;2023-07-31T11:21:30;22.10;99.90
41944;DHT22;27636;52.610;13.244;2023-07-31T11:26:34;22.00;99.90
41944;DHT22;27636;52.610;13.244;2023-07-31T11:31:42;20.90;99.90
41944;DHT22;27636;52.610;13.244;2023-07-31T11:36:54;21.30;99.90
41944;DHT22;27636;52.610;13.244;2023-07-31T11:41:59;22.10;99.90
41944;DHT22;27636;52.610;13.244;2023-07-31T11:47:03;21.90;99.90
41944;DHT22;27636;52.610;13.244;2023-07-31T11:52:08;21.70;99.90
41944;DHT22;27636;52.610;13.244;2023-07-31T11:57:13;21.30;99.90
41944;DHT22;27636;52.610;13.244;2023-07-31T12:02:17;20.90;99.90
41944;DHT22;27636;52.610;13.244;2023-07-31T12:07:23;21.00;99.90
41944;DHT22;27636;52.610;13.244;2023-07-31T12:12:27;20.90;99.90
41944;DHT22;27636;52.610;13.244;2023-07-31T12:17:30;20.60;99.90
41944;DHT22;27636;52.610;13.244;2023-07-31T12:22:35;20.10;99.90
41944;DHT22;27636;52.610;13.244;2023-07-31T12:27:39;20.50;99.90
41944;DHT22;27636;52.610;13.244;2023-07-31T12:32:42;20.50;99.90
41944;DHT22;27636;52.610;13.244;2023-07-31T12:37:49;19.90;99.90
41944;DHT22;27636;52.610;13.244;2023-07-31T12:42:52;19.70;99.90
41944;DHT22;27636;52.610;13.244;2023-07-31T12:47:56;19.70;99.90
41944;DHT22;27636;52.610;13.244;2023-07-31T12:53:01;19.70;99.90
41944;DHT22;27636;52.610;13.244;2023-07-31T12:58:06;19.70;99.90
41944;DHT22;27636;52.610;13.244;2023-07-31T13:03:10;19.90;99.90
41944;DHT22;27636;52.610;13.244;2023-07-31T13:08:16;20.50;99.90
41944;DHT22;27636;52.610;13.244;2023-07-31T13:13:21;20.40;99.90
41944;DHT22;27636;52.610;13.244;2023-07-31T13:18:25;19.70;99.90
41944;DHT22;27636;52.610;13.244;2023-07-31T13:23:30;19.80;99.90
41944;DHT22;27636;52.610;13.244;2023-07-31T13:28:34;20.50;99.90
41944;DHT22;27636;52.610;13.244;2023-07-31T13:33:38;21.20;99.90
41944;DHT22;27636;52.610;13.244;2023-07-31T13:38:48;21.30;99.90
41944;DHT22;27636;52.610;13.244;2023-07-31T13:43:51;21.60;99.90
41944;DHT22;27636;52.610;13.244;2023-07-31T13:48:55;21.80;99.90
41944;DHT22;27636;52.610;13.244;2023-07-31T13:54:01;21.80;99.90
41944;DHT22;27636;52.610;13.244;2023-07-31T13:59:05;21.90;99.90
41944;DHT22;27636;52.610;13.244;2023-07-31T14:04:09;21.70;99.90
41944;DHT22;27636;52.610;13.244;2023-07-31T14:09:14;22.00;99.90
41944;DHT22;27636;52.610;13.244;2023-07-31T14:14:18;21.50;99.90
41944;DHT22;27636;52.610;13.244;2023-07-31T14:19:23;20.90;99.90
41944;DHT22;27636;52.610;13.244;2023-07-31T14:24:30;20.80;99.90
41944;DHT22;27636;52.610;13.244;2023-07-31T14:29:33;21.10;99.90
41944;DHT22;27636;52.610;13.244;2023-07-31T14:34:36;21.10;99.90
41944;DHT22;27636;52.610;13.244;2023-07-31T14:39:42;20.90;99.90
41944;DHT22;27636;52.610;13.244;2023-07-31T14:44:46;20.80;99.90
41944;DHT22;27636;52.610;13.244;2023-07-31T14:49:50;20.80;99.90
41944;DHT22;27636;52.610;13.244;2023-07-31T14:54:55;20.70;99.90
41944;DHT22;27636;52.610;13.244;2023-07-31T14:59:58;20.70;99.90
41944;DHT22;27636;52.610;13.244;2023-07-31T15:05:02;20.60;99.90
41944;DHT22;27636;52.610;13.244;2023-07-31T15:10:08;20.90;99.90
41944;DHT22;27636;52.610;13.244;2023-07-31T15:15:11;21.10;99.90
41944;DHT22;27636;52.610;13.244;2023-07-31T15:20:15;21.10;99.90
41944;DHT22;27636;52.610;13.244;2023-07-31T15:25:20;21.50;99.90
41944;DHT22;27636;52.610;13.244;2023-07-31T15:30:24;21.40;99.90
41944;DHT22;27636;52.610;13.244;2023-07-31T15:35:28;21.40;99.90
41944;DHT22;27636;52.610;13.244;2023-07-31T15:40:33;21.00;99.90
41944;DHT22;27636;52.610;13.244;2023-07-31T15:45:37;20.60;99.90
41944;DHT22;27636;52.610;13.244;2023-07-31T15:50:41;20.40;99.90
41944;DHT22;27636;52.610;13.244;2023-07-31T15:55:46;20.20;99.90
41944;DHT22;27636;52.610;13.244;2023-07-31T16:00:50;20.40;99.90
41944;DHT22;27636;52.610;13.244;2023-07-31T16:05:53;20.40;99.90
41944;DHT22;27636;52.610;13.244;2023-07-31T16:10:58;20.40;99.90
41944;DHT22;27636;52.610;13.244;2023-07-31T16:16:02;20.40;99.90
41944;DHT22;27636;52.610;13.244;2023-07-31T16:21:06;20.50;99.90
41944;DHT22;27636;52.610;13.244;2023-07-31T16:26:11;20.70;99.90
41944;DHT22;27636;52.610;13.244;2023-07-31T16:31:14;20.70;99.90
41944;DHT22;27636;52.610;13.244;2023-07-31T16:36:18;20.60;99.90
41944;DHT22;27636;52.610;13.244;2023-07-31T16:41:24;20.50;99.90
41944;DHT22;27636;52.610;13.244;2023-07-31T16:46:28;20.50;99.90
41944;DHT22;27636;52.610;13.244;2023-07-31T16:51:33;20.70;99.90
41944;DHT22;27636;52.610;13.244;2023-07-31T16:56:38;20.80;99.90
41944;DHT22;27636;52.610;13.244;2023-07-31T17:02:02;20.60;99.90
41944;DHT22;27636;52.610;13.244;2023-07-31T17:07:06;20.60;99.90
41944;DHT22;27636;52.610;13.244;2023-07-31T17:12:11;20.40;99.90
41944;DHT22;27636;52.610;13.244;2023-07-31T17:17:15;20.00;99.90
41944;DHT22;27636;52.610;13.244;2023-07-31T17:22:19;19.20;99.90
41944;DHT22;27636;52.610;13.244;2023-07-31T17:27:38;18.70;99.90
41944;DHT22;27636;52.610;13.244;2023-07-31T17:32:42;18.40;99.90
41944;DHT22;27636;52.610;13.244;2023-07-31T17:37:45;18.20;99.90
41944;DHT22;27636;52.610;13.244;2023-07-31T17:42:50;18.30;99.90
41944;DHT22;27636;52.610;13.244;2023-07-31T17:47:53;18.40;99.90
41944;DHT22;27636;52.610;13.244;2023-07-31T17:52:58;18.30;99.90
41944;DHT22;27636;52.610;13.244;2023-07-31T17:58:03;18.30;99.90
41944;DHT22;27636;52.610;13.244;2023-07-31T18:03:06;18.20;99.90
41944;DHT22;27636;52.610;13.244;2023-07-31T18:08:12;18.20;99.90
41944;DHT22;27636;52.610;13.244;2023-07-31T18:13:17;18.10;99.90
41944;DHT22;27636;52.610;13.244;2023-07-31T18:18:21;18.10;99.90
41944;DHT22;27636;52.610;13.244;2023-07-31T18:23:25;18.10;99.90
41944;DHT22;27636;52.610;13.244;2023-07-31T18:28:31;18.10;99.90
41944;DHT22;27636;52.610;13.244;2023-07-31T18:33:34;17.90;99.90
41944;DHT22;27636;52.610;13.244;2023-07-31T18:38:41;17.90;99.90
41944;DHT22;27636;52.610;13.244;2023-07-31T18:43:46;17.80;99.90
41944;DHT22;27636;52.610;13.244;2023-07-31T18:48:50;17.80;99.90
41944;DHT22;27636;52.610;13.244;2023-07-31T18:53:54;17.90;99.90
41944;DHT22;27636;52.610;13.244;2023-07-31T18:58:58;17.80;99.90
41944;DHT22;27636;52.610;13.244;2023-07-31T19:04:04;17.70;99.90
41944;DHT22;27636;52.610;13.244;2023-07-31T19:09:10;17.60;99.90
41944;DHT22;27636;52.610;13.244;2023-07-31T19:14:15;17.50;99.90
41944;DHT22;27636;52.610;13.244;2023-07-31T19:19:18;17.40;99.90
41944;DHT22;27636;52.610;13.244;2023-07-31T19:24:22;17.50;99.90
41944;DHT22;27636;52.610;13.244;2023-07-31T19:29:35;17.50;99.90
41944;DHT22;27636;52.610;13.244;2023-07-31T19:34:38;17.60;99.90
41944;DHT22;27636;52.610;13.244;2023-07-31T19:39:42;17.60;99.90
41944;DHT22;27636;52.610;13.244;2023-07-31T19:44:48;17.60;99.90
41944;DHT22;27636;52.610;13.244;2023-07-31T19:49:51;17.70;99.90
41944;DHT22;27636;52.610;13.244;2023-07-31T19:54:54;17.70;99.90
41944;DHT22;27636;52.610;13.244;2023-07-31T20:00:00;18.00;99.90
41944;DHT22;27636;52.610;13.244;2023-07-31T20:05:12;18.00;99.90
41944;DHT22;27636;52.610;13.244;2023-07-31T20:10:16;18.10;99.90
41944;DHT22;27636;52.610;13.244;2023-07-31T20:15:22;18.00;99.90
41944;DHT22;27636;52.610;13.244;2023-07-31T20:20:27;18.00;99.90
41944;DHT22;27636;52.610;13.244;2023-07-31T20:25:30;18.00;99.90
41944;DHT22;27636;52.610;13.244;2023-07-31T20:30:37;18.20;99.90
41944;DHT22;27636;52.610;13.244;2023-07-31T20:35:41;18.10;99.90
41944;DHT22;27636;52.610;13.244;2023-07-31T20:40:44;18.10;99.90
41944;DHT22;27636;52.610;13.244;2023-07-31T20:45:51;18.10;99.90
41944;DHT22;27636;52.610;13.244;2023-07-31T20:50:58;18.00;99.90
41944;DHT22;27636;52.610;13.244;2023-07-31T20:56:03;18.00;99.90
41944;DHT22;27636;52.610;13.244;2023-07-31T21:01:08;18.00;99.90
41944;DHT22;27636;52.610;13.244;2023-07-31T21:06:12;17.80;99.90
41944;DHT22;27636;52.610;13.244;2023-07-31T21:11:16;17.80;99.90
41944;DHT22;27636;52.610;13.244;2023-07-31T21:16:21;17.70;99.90
41944;DHT22;27636;52.610;13.244;2023-07-31T21:21:25;17.80;99.90
41944;DHT22;27636;52.610;13.244;2023-07-31T21:26:29;17.70;99.90
41944;DHT22;27636;52.610;13.244;2023-07-31T21:31:34;17.70;99.90
41944;DHT22;27636;52.610;13.244;2023-07-31T21:36:38;17.90;99.90
41944;DHT22;27636;52.610;13.244;2023-07-31T21:41:42;17.90;99.90
41944;DHT22;27636;52.610;13.244;2023-07-31T21:46:47;17.90;99.90
41944;DHT22;27636;52.610;13.244;2023-07-31T21:51:50;18.00;99.90
41944;DHT22;27636;52.610;13.244;2023-07-31T21:56:53;17.90;99.90
41944;DHT22;27636;52.610;13.244;2023-07-31T22:01:59;18.00;99.90
41944;DHT22;27636;52.610;13.244;2023-07-31T22:07:02;18.00;99.90
41944;DHT22;27636;52.610;13.244;2023-07-31T22:12:06;17.90;99.90
41944;DHT22;27636;52.610;13.244;2023-07-31T22:17:12;17.90;99.90
41944;DHT22;27636;52.610;13.244;2023-07-31T22:22:15;17.90;99.90
41944;DHT22;27636;52.610;13.244;2023-07-31T22:27:19;17.80;99.90
41944;DHT22;27636;52.610;13.244;2023-07-31T22:32:24;17.90;99.90
41944;DHT22;27636;52.610;13.244;2023-07-31T22:37:27;17.80;99.90
41944;DHT22;27636;52.610;13.244;2023-07-31T22:42:30;17.70;99.90
41944;DHT22;27636;52.610;13.244;2023-07-31T22:47:37;17.60;99.90
41944;DHT22;27636;52.610;13.244;2023-07-31T22:52:43;17.80;99.90
41944;DHT22;27636;52.610;13.244;2023-07-31T22:57:46;17.80;99.90
41944;DHT22;27636;52.610;13.244;2023-07-31T23:02:51;17.80;99.90
41944;DHT22;27636;52.610;13.244;2023-07-31T23:07:55;17.80;99.90
41944;DHT22;27636;52.610;13.244;2023-07-31T23:12:58;17.90;99.90
41944;DHT22;27636;52.610;13.244;2023-07-31T23:18:03;17.90;99.90
41944;DHT22;27636;52.610;13.244;2023-07-31T23:23:10;18.10;99.90
41944;DHT22;27636;52.610;13.244;2023-07-31T23:28:15;18.00;99.90
41944;DHT22;27636;52.610;13.244;2023-07-31T23:33:20;17.80;99.90
41944;DHT22;27636;52.610;13.244;2023-07-31T23:38:24;17.70;99.90
41944;DHT22;27636;52.610;13.244;2023-07-31T23:43:27;17.60;99.90
41944;DHT22;27636;52.610;13.244;2023-07-31T23:48:32;17.50;99.90
41944;DHT22;27636;52.610;13.244;2023-07-31T23:53:35;17.40;99.90
41944;DHT22;27636;52.610;13.244;2023-07-31T23:58:39;17.40;99.90
